sensor_id;sensor_type;location;lat;lon;timestamp;temperature;humidity
7167;DHT22;3625;51.762;14.320;2023-08-24T00:05:40;16.30;99.90
7167;DHT22;3625;51.762;14.320;2023-08-24T00:10:43;16.30;99.90
7167;DHT22;3625;51.762;14.320;2023-08-24T00:45:54;16.50;99.90
7167;DHT22;3625;51.762;14.320;2023-08-24T00:51:00;16.60;99.90
7167;DHT22;3625;51.762;14.320;2023-08-24T01:11:18;16.80;99.90
7167;DHT22;3625;51.762;14.320;2023-08-24T01:14:09;16.90;99.90
7167;DHT22;3625;51.762;14.320;2023-08-24T01:16:52;16.80;99.90
7167;DHT22;3625;51.762;14.320;2023-08-24T01:19:36;16.80;99.90
7167;DHT22;3625;51.762;14.320;2023-08-24T01:22:17;16.70;99.90
7167;DHT22;3625;51.762;14.320;2023-08-24T01:25:04;16.60;99.90
7167;DHT22;3625;51.762;14.320;2023-08-24T01:35:08;15.10;99.90
7167;DHT22;3625;51.762;14.320;2023-08-24T01:40:14;16.30;99.90
7167;DHT22;3625;51.762;14.320;2023-08-24T01:42:52;16.20;99.90
7167;DHT22;3625;51.762;14.320;2023-08-24T01:45:29;16.10;99.90
7167;DHT22;3625;51.762;14.320;2023-08-24T01:48:02;16.10;99.90
7167;DHT22;3625;51.762;14.320;2023-08-24T01:50:33;16.10;99.90
7167;DHT22;3625;51.762;14.320;2023-08-24T01:53:04;16.00;99.90
7167;DHT22;3625;51.762;14.320;2023-08-24T01:55:33;16.00;99.90
7167;DHT22;3625;51.762;14.320;2023-08-24T01:58:03;16.00;99.90
7167;DHT22;3625;51.762;14.320;2023-08-24T02:00:32;16.00;99.90
7167;DHT22;3625;51.762;14.320;2023-08-24T02:05:32;15.90;99.90
7167;DHT22;3625;51.762;14.320;2023-08-24T02:08:03;15.90;99.90
7167;DHT22;3625;51.762;14.320;2023-08-24T02:10:32;15.90;99.90
7167;DHT22;3625;51.762;14.320;2023-08-24T02:13:03;15.90;99.90
7167;DHT22;3625;51.762;14.320;2023-08-24T02:15:37;15.80;99.90
7167;DHT22;3625;51.762;14.320;2023-08-24T02:18:08;15.80;99.90
7167;DHT22;3625;51.762;14.320;2023-08-24T02:20:37;15.80;99.90
7167;DHT22;3625;51.762;14.320;2023-08-24T02:23:06;15.70;99.90
7167;DHT22;3625;51.762;14.320;2023-08-24T02:25:42;15.70;99.90
7167;DHT22;3625;51.762;14.320;2023-08-24T02:28:12;15.70;99.90
7167;DHT22;3625;51.762;14.320;2023-08-24T02:35:38;15.60;99.90
7167;DHT22;3625;51.762;14.320;2023-08-24T02:38:07;15.60;99.90
7167;DHT22;3625;51.762;14.320;2023-08-24T02:45:34;15.60;99.90
7167;DHT22;3625;51.762;14.320;2023-08-24T02:48:04;15.50;99.90
7167;DHT22;3625;51.762;14.320;2023-08-24T02:50:33;15.50;99.90
7167;DHT22;3625;51.762;14.320;2023-08-24T02:55:32;15.40;99.90
7167;DHT22;3625;51.762;14.320;2023-08-24T02:58:01;15.40;99.90
7167;DHT22;3625;51.762;14.320;2023-08-24T03:00:29;15.40;99.90
7167;DHT22;3625;51.762;14.320;2023-08-24T03:03:00;15.30;99.90
7167;DHT22;3625;51.762;14.320;2023-08-24T03:07:58;15.20;99.90
7167;DHT22;3625;51.762;14.320;2023-08-24T03:10:27;15.20;99.90
7167;DHT22;3625;51.762;14.320;2023-08-24T03:17:53;15.20;99.90
7167;DHT22;3625;51.762;14.320;2023-08-24T03:20:25;15.10;99.90
7167;DHT22;3625;51.762;14.320;2023-08-24T03:32:51;15.10;99.90
7167;DHT22;3625;51.762;14.320;2023-08-24T03:35:22;15.00;99.90
7167;DHT22;3625;51.762;14.320;2023-08-24T03:37:54;15.00;99.90
7167;DHT22;3625;51.762;14.320;2023-08-24T03:40:24;15.00;99.90
7167;DHT22;3625;51.762;14.320;2023-08-24T03:42:53;15.00;99.90
7167;DHT22;3625;51.762;14.320;2023-08-24T03:45:21;15.00;99.90
7167;DHT22;3625;51.762;14.320;2023-08-24T03:50:22;15.00;99.90
7167;DHT22;3625;51.762;14.320;2023-08-24T03:52:51;15.00;99.90
7167;DHT22;3625;51.762;14.320;2023-08-24T03:55:23;15.00;99.90
7167;DHT22;3625;51.762;14.320;2023-08-24T03:57:51;15.00;99.90
7167;DHT22;3625;51.762;14.320;2023-08-24T04:00:24;15.00;99.90
7167;DHT22;3625;51.762;14.320;2023-08-24T04:02:53;15.00;99.90
7167;DHT22;3625;51.762;14.320;2023-08-24T04:10:26;15.00;99.90
7167;DHT22;3625;51.762;14.320;2023-08-24T04:12:58;14.90;99.90
7167;DHT22;3625;51.762;14.320;2023-08-24T04:22:54;15.10;99.90
7167;DHT22;3625;51.762;14.320;2023-08-24T04:25:26;15.20;99.90
7167;DHT22;3625;51.762;14.320;2023-08-24T04:27:54;15.30;99.90
7167;DHT22;3625;51.762;14.320;2023-08-24T04:37:49;15.70;99.90
7167;DHT22;3625;51.762;14.320;2023-08-24T04:40:18;15.90;99.90
7167;DHT22;3625;51.762;14.320;2023-08-24T04:50:19;16.40;99.90
7167;DHT22;3625;51.762;14.320;2023-08-24T04:55:17;16.40;99.90
7167;DHT22;3625;51.762;14.320;2023-08-24T05:00:17;16.40;99.90
7167;DHT22;3625;51.762;14.320;2023-08-24T05:07:49;16.40;99.90
7167;DHT22;3625;51.762;14.320;2023-08-24T05:10:18;16.50;99.90
7167;DHT22;3625;51.762;14.320;2023-08-24T05:15:19;16.60;99.90
7167;DHT22;3625;51.762;14.320;2023-08-24T05:22:48;16.80;99.90
7167;DHT22;3625;51.762;14.320;2023-08-24T05:27:52;16.90;99.90
7167;DHT22;3625;51.762;14.320;2023-08-24T05:30:22;17.00;99.90
7167;DHT22;3625;51.762;14.320;2023-08-24T05:35:22;17.20;99.90
7167;DHT22;3625;51.762;14.320;2023-08-24T05:40:27;17.30;99.90
7167;DHT22;3625;51.762;14.320;2023-08-24T05:47:58;17.50;99.90
7167;DHT22;3625;51.762;14.320;2023-08-24T06:15:31;18.50;99.90
7167;DHT22;3625;51.762;14.320;2023-08-24T06:18:01;18.60;99.90
7167;DHT22;3625;51.762;14.320;2023-08-24T06:28:03;18.90;99.90
7167;DHT22;3625;51.762;14.320;2023-08-24T06:33:35;19.10;99.90
7167;DHT22;3625;51.762;14.320;2023-08-24T06:36:06;19.20;99.90
7167;DHT22;3625;51.762;14.320;2023-08-24T06:41:06;19.30;99.90
7167;DHT22;3625;51.762;14.320;2023-08-24T06:46:11;19.50;99.90
7167;DHT22;3625;51.762;14.320;2023-08-24T06:48:41;19.60;99.90
7167;DHT22;3625;51.762;14.320;2023-08-24T06:58:53;20.20;99.90
7167;DHT22;3625;51.762;14.320;2023-08-24T07:03:56;20.40;99.90
7167;DHT22;3625;51.762;14.320;2023-08-24T07:14:02;20.70;99.90
7167;DHT22;3625;51.762;14.320;2023-08-24T07:19:01;20.80;99.90
7167;DHT22;3625;51.762;14.320;2023-08-24T07:21:31;21.00;99.90
7167;DHT22;3625;51.762;14.320;2023-08-24T07:24:03;21.10;99.90
7167;DHT22;3625;51.762;14.320;2023-08-24T07:26:33;21.20;99.90
7167;DHT22;3625;51.762;14.320;2023-08-24T07:34:03;21.40;1.00
7167;DHT22;3625;51.762;14.320;2023-08-24T07:43:58;21.70;99.90
7167;DHT22;3625;51.762;14.320;2023-08-24T07:48:59;21.90;25.10
7167;DHT22;3625;51.762;14.320;2023-08-24T07:51:29;21.90;99.90
7167;DHT22;3625;51.762;14.320;2023-08-24T07:54:00;22.00;1.00
7167;DHT22;3625;51.762;14.320;2023-08-24T07:56:31;22.00;1.00
7167;DHT22;3625;51.762;14.320;2023-08-24T07:59:02;22.10;80.40
7167;DHT22;3625;51.762;14.320;2023-08-24T08:03:59;22.30;1.00
7167;DHT22;3625;51.762;14.320;2023-08-24T08:06:35;22.30;99.90
7167;DHT22;3625;51.762;14.320;2023-08-24T08:09:06;22.40;1.00
7167;DHT22;3625;51.762;14.320;2023-08-24T08:11:35;22.40;1.00
7167;DHT22;3625;51.762;14.320;2023-08-24T08:24:00;22.70;11.40
7167;DHT22;3625;51.762;14.320;2023-08-24T08:26:30;22.80;99.90
7167;DHT22;3625;51.762;14.320;2023-08-24T08:28:58;22.90;34.80
7167;DHT22;3625;51.762;14.320;2023-08-24T08:31:29;23.00;1.00
7167;DHT22;3625;51.762;14.320;2023-08-24T08:38:55;23.10;1.00
7167;DHT22;3625;51.762;14.320;2023-08-24T08:41:27;23.10;1.00
7167;DHT22;3625;51.762;14.320;2023-08-24T08:44:05;23.20;1.00
7167;DHT22;3625;51.762;14.320;2023-08-24T08:46:33;23.30;1.00
7167;DHT22;3625;51.762;14.320;2023-08-24T08:49:02;23.30;1.00
7167;DHT22;3625;51.762;14.320;2023-08-24T08:51:36;23.40;1.00
7167;DHT22;3625;51.762;14.320;2023-08-24T08:56:36;23.70;1.00
7167;DHT22;3625;51.762;14.320;2023-08-24T08:59:08;23.80;1.00
7167;DHT22;3625;51.762;14.320;2023-08-24T09:04:08;24.10;99.90
7167;DHT22;3625;51.762;14.320;2023-08-24T09:06:37;24.40;99.90
7167;DHT22;3625;51.762;14.320;2023-08-24T09:09:07;24.70;1.00
7167;DHT22;3625;51.762;14.320;2023-08-24T09:11:38;25.00;1.00
7167;DHT22;3625;51.762;14.320;2023-08-24T09:14:11;25.30;99.90
7167;DHT22;3625;51.762;14.320;2023-08-24T09:19:11;26.20;99.90
7167;DHT22;3625;51.762;14.320;2023-08-24T09:21:41;26.60;99.90
7167;DHT22;3625;51.762;14.320;2023-08-24T09:24:11;26.90;1.00
7167;DHT22;3625;51.762;14.320;2023-08-24T09:26:42;27.20;1.00
7167;DHT22;3625;51.762;14.320;2023-08-24T09:29:13;27.50;1.00
7167;DHT22;3625;51.762;14.320;2023-08-24T09:31:43;27.80;1.00
7167;DHT22;3625;51.762;14.320;2023-08-24T09:34:12;27.90;99.90
7167;DHT22;3625;51.762;14.320;2023-08-24T09:36:43;28.00;1.00
7167;DHT22;3625;51.762;14.320;2023-08-24T09:39:16;28.00;99.90
7167;DHT22;3625;51.762;14.320;2023-08-24T09:41:49;28.10;1.00
7167;DHT22;3625;51.762;14.320;2023-08-24T09:44:18;28.00;1.00
7167;DHT22;3625;51.762;14.320;2023-08-24T09:46:47;28.20;1.00
7167;DHT22;3625;51.762;14.320;2023-08-24T09:49:19;28.60;1.00
7167;DHT22;3625;51.762;14.320;2023-08-24T09:51:48;28.80;1.00
7167;DHT22;3625;51.762;14.320;2023-08-24T09:54:21;29.00;99.90
7167;DHT22;3625;51.762;14.320;2023-08-24T09:56:59;29.00;99.90
7167;DHT22;3625;51.762;14.320;2023-08-24T09:59:32;29.10;1.00
7167;DHT22;3625;51.762;14.320;2023-08-24T10:02:12;29.40;99.90
7167;DHT22;3625;51.762;14.320;2023-08-24T10:04:47;29.80;99.90
7167;DHT22;3625;51.762;14.320;2023-08-24T10:07:21;30.10;99.90
7167;DHT22;3625;51.762;14.320;2023-08-24T10:09:58;30.10;99.90
7167;DHT22;3625;51.762;14.320;2023-08-24T10:12:38;29.90;99.90
7167;DHT22;3625;51.762;14.320;2023-08-24T10:15:18;29.90;99.90
7167;DHT22;3625;51.762;14.320;2023-08-24T10:17:50;30.10;99.90
7167;DHT22;3625;51.762;14.320;2023-08-24T10:20:20;30.30;99.90
7167;DHT22;3625;51.762;14.320;2023-08-24T10:22:50;30.60;99.90
7167;DHT22;3625;51.762;14.320;2023-08-24T10:25:21;30.70;99.90
7167;DHT22;3625;51.762;14.320;2023-08-24T10:27:53;30.70;99.90
7167;DHT22;3625;51.762;14.320;2023-08-24T10:30:23;30.50;99.90
7167;DHT22;3625;51.762;14.320;2023-08-24T10:32:56;30.40;99.90
7167;DHT22;3625;51.762;14.320;2023-08-24T10:35:26;30.40;99.90
7167;DHT22;3625;51.762;14.320;2023-08-24T10:38:00;29.90;99.90
7167;DHT22;3625;51.762;14.320;2023-08-24T10:40:32;29.50;99.90
7167;DHT22;3625;51.762;14.320;2023-08-24T10:43:05;28.80;99.90
7167;DHT22;3625;51.762;14.320;2023-08-24T10:45:55;28.30;99.90
7167;DHT22;3625;51.762;14.320;2023-08-24T10:48:28;27.70;99.90
7167;DHT22;3625;51.762;14.320;2023-08-24T10:51:17;27.40;99.90
7167;DHT22;3625;51.762;14.320;2023-08-24T10:53:51;27.20;99.90
7167;DHT22;3625;51.762;14.320;2023-08-24T10:56:30;27.10;99.90
7167;DHT22;3625;51.762;14.320;2023-08-24T10:59:14;27.00;99.90
7167;DHT22;3625;51.762;14.320;2023-08-24T11:01:54;26.70;99.90
7167;DHT22;3625;51.762;14.320;2023-08-24T11:04:25;26.40;99.90
7167;DHT22;3625;51.762;14.320;2023-08-24T11:06:56;26.20;99.90
7167;DHT22;3625;51.762;14.320;2023-08-24T11:09:45;26.00;99.90
7167;DHT22;3625;51.762;14.320;2023-08-24T11:14:50;26.00;99.90
7167;DHT22;3625;51.762;14.320;2023-08-24T11:17:23;26.10;99.90
7167;DHT22;3625;51.762;14.320;2023-08-24T11:19:53;26.20;99.90
7167;DHT22;3625;51.762;14.320;2023-08-24T11:22:25;26.30;66.50
7167;DHT22;3625;51.762;14.320;2023-08-24T11:24:53;26.70;60.60
7167;DHT22;3625;51.762;14.320;2023-08-24T11:27:22;24.00;84.00
7167;DHT22;3625;51.762;14.320;2023-08-24T11:29:59;27.60;54.50
7167;DHT22;3625;51.762;14.320;2023-08-24T11:32:28;27.60;35.40
7167;DHT22;3625;51.762;14.320;2023-08-24T11:34:59;27.50;27.30
7167;DHT22;3625;51.762;14.320;2023-08-24T11:37:27;27.50;40.00
7167;DHT22;3625;51.762;14.320;2023-08-24T11:44:54;28.20;79.90
7167;DHT22;3625;51.762;14.320;2023-08-24T11:47:24;28.30;99.90
7167;DHT22;3625;51.762;14.320;2023-08-24T11:52:21;28.00;99.90
7167;DHT22;3625;51.762;14.320;2023-08-24T11:54:51;28.00;99.90
7167;DHT22;3625;51.762;14.320;2023-08-24T11:57:20;27.90;99.90
7167;DHT22;3625;51.762;14.320;2023-08-24T11:59:49;27.60;99.90
7167;DHT22;3625;51.762;14.320;2023-08-24T12:02:17;27.50;99.90
7167;DHT22;3625;51.762;14.320;2023-08-24T12:04:48;27.60;71.80
7167;DHT22;3625;51.762;14.320;2023-08-24T12:07:18;27.80;49.40
7167;DHT22;3625;51.762;14.320;2023-08-24T12:09:51;28.30;95.90
7167;DHT22;3625;51.762;14.320;2023-08-24T12:14:50;29.30;99.90
7167;DHT22;3625;51.762;14.320;2023-08-24T12:17:21;29.40;99.90
7167;DHT22;3625;51.762;14.320;2023-08-24T12:19:58;29.60;99.90
7167;DHT22;3625;51.762;14.320;2023-08-24T12:22:27;30.00;99.90
7167;DHT22;3625;51.762;14.320;2023-08-24T12:24:57;30.40;99.90
7167;DHT22;3625;51.762;14.320;2023-08-24T12:27:26;30.40;99.90
7167;DHT22;3625;51.762;14.320;2023-08-24T12:30:00;30.30;99.90
7167;DHT22;3625;51.762;14.320;2023-08-24T12:32:42;30.30;99.90
7167;DHT22;3625;51.762;14.320;2023-08-24T12:35:14;29.90;99.90
7167;DHT22;3625;51.762;14.320;2023-08-24T12:37:43;30.00;99.90
7167;DHT22;3625;51.762;14.320;2023-08-24T12:40:13;30.10;99.90
7167;DHT22;3625;51.762;14.320;2023-08-24T12:42:42;30.20;99.90
7167;DHT22;3625;51.762;14.320;2023-08-24T12:45:10;30.20;99.90
7167;DHT22;3625;51.762;14.320;2023-08-24T12:50:08;30.20;99.90
7167;DHT22;3625;51.762;14.320;2023-08-24T12:52:38;30.30;99.90
7167;DHT22;3625;51.762;14.320;2023-08-24T12:55:07;30.50;99.90
7167;DHT22;3625;51.762;14.320;2023-08-24T12:57:35;30.70;99.90
7167;DHT22;3625;51.762;14.320;2023-08-24T13:00:11;30.70;99.90
7167;DHT22;3625;51.762;14.320;2023-08-24T13:02:40;30.50;99.90
7167;DHT22;3625;51.762;14.320;2023-08-24T13:05:09;30.20;99.90
7167;DHT22;3625;51.762;14.320;2023-08-24T13:07:39;29.80;99.90
7167;DHT22;3625;51.762;14.320;2023-08-24T13:10:10;29.60;99.90
7167;DHT22;3625;51.762;14.320;2023-08-24T13:12:39;29.30;99.90
7167;DHT22;3625;51.762;14.320;2023-08-24T13:15:09;29.30;99.90
7167;DHT22;3625;51.762;14.320;2023-08-24T13:17:39;29.10;99.90
7167;DHT22;3625;51.762;14.320;2023-08-24T13:20:08;29.10;99.90
7167;DHT22;3625;51.762;14.320;2023-08-24T13:22:38;29.00;99.90
7167;DHT22;3625;51.762;14.320;2023-08-24T13:25:09;29.10;99.90
7167;DHT22;3625;51.762;14.320;2023-08-24T13:27:39;29.00;99.90
7167;DHT22;3625;51.762;14.320;2023-08-24T13:32:40;28.40;99.90
7167;DHT22;3625;51.762;14.320;2023-08-24T13:35:11;28.40;99.90
7167;DHT22;3625;51.762;14.320;2023-08-24T13:37:41;28.20;99.90
7167;DHT22;3625;51.762;14.320;2023-08-24T13:40:10;28.20;99.90
7167;DHT22;3625;51.762;14.320;2023-08-24T13:42:39;28.50;99.90
7167;DHT22;3625;51.762;14.320;2023-08-24T13:45:08;28.50;99.90
7167;DHT22;3625;51.762;14.320;2023-08-24T13:47:37;28.60;99.90
7167;DHT22;3625;51.762;14.320;2023-08-24T13:50:06;28.70;99.90
7167;DHT22;3625;51.762;14.320;2023-08-24T13:52:35;28.70;99.90
7167;DHT22;3625;51.762;14.320;2023-08-24T13:55:06;28.60;99.90
7167;DHT22;3625;51.762;14.320;2023-08-24T13:57:39;28.50;99.90
7167;DHT22;3625;51.762;14.320;2023-08-24T14:00:09;28.30;99.90
7167;DHT22;3625;51.762;14.320;2023-08-24T14:02:38;28.10;99.90
7167;DHT22;3625;51.762;14.320;2023-08-24T14:05:08;27.90;99.90
7167;DHT22;3625;51.762;14.320;2023-08-24T14:10:08;27.80;99.90
7167;DHT22;3625;51.762;14.320;2023-08-24T14:12:37;27.60;99.90
7167;DHT22;3625;51.762;14.320;2023-08-24T14:15:07;27.60;99.90
7167;DHT22;3625;51.762;14.320;2023-08-24T14:17:36;27.50;99.90
7167;DHT22;3625;51.762;14.320;2023-08-24T14:20:06;27.50;99.90
7167;DHT22;3625;51.762;14.320;2023-08-24T14:22:37;27.50;99.90
7167;DHT22;3625;51.762;14.320;2023-08-24T14:25:08;27.60;99.90
7167;DHT22;3625;51.762;14.320;2023-08-24T14:27:41;27.60;99.90
7167;DHT22;3625;51.762;14.320;2023-08-24T14:30:20;27.70;99.90
7167;DHT22;3625;51.762;14.320;2023-08-24T14:32:51;27.70;99.90
7167;DHT22;3625;51.762;14.320;2023-08-24T14:35:20;27.70;99.90
7167;DHT22;3625;51.762;14.320;2023-08-24T14:37:48;27.80;99.90
7167;DHT22;3625;51.762;14.320;2023-08-24T14:40:18;27.80;99.90
7167;DHT22;3625;51.762;14.320;2023-08-24T14:42:47;27.80;99.90
7167;DHT22;3625;51.762;14.320;2023-08-24T14:45:16;27.90;99.90
7167;DHT22;3625;51.762;14.320;2023-08-24T14:47:45;27.90;99.90
7167;DHT22;3625;51.762;14.320;2023-08-24T14:50:14;27.90;99.90
7167;DHT22;3625;51.762;14.320;2023-08-24T14:52:43;28.00;99.90
7167;DHT22;3625;51.762;14.320;2023-08-24T14:57:46;28.20;99.90
7167;DHT22;3625;51.762;14.320;2023-08-24T15:00:20;28.20;99.90
7167;DHT22;3625;51.762;14.320;2023-08-24T15:02:51;28.20;99.90
7167;DHT22;3625;51.762;14.320;2023-08-24T15:05:22;28.10;99.90
7167;DHT22;3625;51.762;14.320;2023-08-24T15:07:53;28.10;99.90
7167;DHT22;3625;51.762;14.320;2023-08-24T15:10:22;28.10;99.90
7167;DHT22;3625;51.762;14.320;2023-08-24T15:12:52;28.20;99.90
7167;DHT22;3625;51.762;14.320;2023-08-24T15:20:19;28.60;99.90
7167;DHT22;3625;51.762;14.320;2023-08-24T15:22:48;28.70;99.90
7167;DHT22;3625;51.762;14.320;2023-08-24T15:25:16;28.90;99.90
7167;DHT22;3625;51.762;14.320;2023-08-24T15:30:15;29.10;99.90
7167;DHT22;3625;51.762;14.320;2023-08-24T15:32:45;29.30;99.90
7167;DHT22;3625;51.762;14.320;2023-08-24T15:35:13;29.30;99.90
7167;DHT22;3625;51.762;14.320;2023-08-24T15:40:13;29.40;99.90
7167;DHT22;3625;51.762;14.320;2023-08-24T15:42:43;29.30;99.90
7167;DHT22;3625;51.762;14.320;2023-08-24T15:45:15;29.10;99.90
7167;DHT22;3625;51.762;14.320;2023-08-24T15:47:43;29.00;99.90
7167;DHT22;3625;51.762;14.320;2023-08-24T15:50:12;28.90;99.90
7167;DHT22;3625;51.762;14.320;2023-08-24T15:52:45;28.80;99.90
7167;DHT22;3625;51.762;14.320;2023-08-24T15:55:13;28.80;99.90
7167;DHT22;3625;51.762;14.320;2023-08-24T15:57:42;28.70;99.90
7167;DHT22;3625;51.762;14.320;2023-08-24T16:00:15;28.60;99.90
7167;DHT22;3625;51.762;14.320;2023-08-24T16:02:44;28.40;99.90
7167;DHT22;3625;51.762;14.320;2023-08-24T16:05:12;28.20;99.90
7167;DHT22;3625;51.762;14.320;2023-08-24T16:07:41;28.00;99.90
7167;DHT22;3625;51.762;14.320;2023-08-24T16:10:10;27.80;99.90
7167;DHT22;3625;51.762;14.320;2023-08-24T16:12:39;27.60;99.90
7167;DHT22;3625;51.762;14.320;2023-08-24T16:17:41;27.50;99.90
7167;DHT22;3625;51.762;14.320;2023-08-24T16:20:12;27.40;99.90
7167;DHT22;3625;51.762;14.320;2023-08-24T16:22:41;27.30;99.90
7167;DHT22;3625;51.762;14.320;2023-08-24T16:25:10;27.30;99.90
7167;DHT22;3625;51.762;14.320;2023-08-24T16:27:41;27.20;99.90
7167;DHT22;3625;51.762;14.320;2023-08-24T16:30:17;27.20;99.90
7167;DHT22;3625;51.762;14.320;2023-08-24T16:32:50;27.10;99.90
7167;DHT22;3625;51.762;14.320;2023-08-24T16:37:48;26.90;99.90
7167;DHT22;3625;51.762;14.320;2023-08-24T16:42:49;26.90;99.90
7167;DHT22;3625;51.762;14.320;2023-08-24T16:45:17;26.90;99.90
7167;DHT22;3625;51.762;14.320;2023-08-24T16:47:53;26.90;99.90
7167;DHT22;3625;51.762;14.320;2023-08-24T16:50:25;26.80;99.90
7167;DHT22;3625;51.762;14.320;2023-08-24T16:53:03;26.80;99.90
7167;DHT22;3625;51.762;14.320;2023-08-24T16:56:21;26.70;99.90
7167;DHT22;3625;51.762;14.320;2023-08-24T16:59:25;26.70;99.90
7167;DHT22;3625;51.762;14.320;2023-08-24T17:10:31;26.60;99.90
7167;DHT22;3625;51.762;14.320;2023-08-24T17:13:00;26.60;99.90
7167;DHT22;3625;51.762;14.320;2023-08-24T17:17:59;26.50;99.90
7167;DHT22;3625;51.762;14.320;2023-08-24T17:20:28;26.40;99.90
7167;DHT22;3625;51.762;14.320;2023-08-24T17:23:05;26.30;99.90
7167;DHT22;3625;51.762;14.320;2023-08-24T17:25:40;26.10;99.90
7167;DHT22;3625;51.762;14.320;2023-08-24T17:30:45;25.80;99.90
7167;DHT22;3625;51.762;14.320;2023-08-24T17:35:43;25.50;99.90
7167;DHT22;3625;51.762;14.320;2023-08-24T17:38:13;25.40;99.90
7167;DHT22;3625;51.762;14.320;2023-08-24T17:40:42;25.20;99.90
7167;DHT22;3625;51.762;14.320;2023-08-24T17:45:40;24.90;99.90
7167;DHT22;3625;51.762;14.320;2023-08-24T17:50:37;24.50;84.80
7167;DHT22;3625;51.762;14.320;2023-08-24T17:53:06;24.30;35.10
7167;DHT22;3625;51.762;14.320;2023-08-24T17:55:36;24.20;25.80
7167;DHT22;3625;51.762;14.320;2023-08-24T18:03:03;23.70;60.60
7167;DHT22;3625;51.762;14.320;2023-08-24T18:10:32;23.50;99.90
7167;DHT22;3625;51.762;14.320;2023-08-24T18:13:03;23.40;92.70
7167;DHT22;3625;51.762;14.320;2023-08-24T18:15:33;23.30;99.90
7167;DHT22;3625;51.762;14.320;2023-08-24T18:18:03;23.30;72.10
7167;DHT22;3625;51.762;14.320;2023-08-24T18:21:01;23.20;99.90
7167;DHT22;3625;51.762;14.320;2023-08-24T18:23:33;23.10;99.90
7167;DHT22;3625;51.762;14.320;2023-08-24T18:26:02;23.10;99.90
7167;DHT22;3625;51.762;14.320;2023-08-24T18:28:34;23.00;99.90
7167;DHT22;3625;51.762;14.320;2023-08-24T18:38:31;22.70;99.90
7167;DHT22;3625;51.762;14.320;2023-08-24T18:41:12;22.60;99.90
7167;DHT22;3625;51.762;14.320;2023-08-24T18:43:42;22.90;99.90
7167;DHT22;3625;51.762;14.320;2023-08-24T18:48:45;22.40;99.90
7167;DHT22;3625;51.762;14.320;2023-08-24T18:51:14;22.30;99.90
7167;DHT22;3625;51.762;14.320;2023-08-24T18:53:58;22.30;99.90
7167;DHT22;3625;51.762;14.320;2023-08-24T18:56:33;22.10;99.90
7167;DHT22;3625;51.762;14.320;2023-08-24T18:59:07;22.00;99.90
7167;DHT22;3625;51.762;14.320;2023-08-24T19:06:39;21.90;99.90
7167;DHT22;3625;51.762;14.320;2023-08-24T19:09:14;21.80;99.90
7167;DHT22;3625;51.762;14.320;2023-08-24T19:11:44;21.80;99.90
7167;DHT22;3625;51.762;14.320;2023-08-24T19:14:15;21.80;99.90
7167;DHT22;3625;51.762;14.320;2023-08-24T19:26:51;21.80;99.90
7167;DHT22;3625;51.762;14.320;2023-08-24T19:29:21;21.80;99.90
7167;DHT22;3625;51.762;14.320;2023-08-24T19:41:49;22.00;99.90
7167;DHT22;3625;51.762;14.320;2023-08-24T19:52:09;22.20;99.90
7167;DHT22;3625;51.762;14.320;2023-08-24T19:59:40;20.40;99.90
7167;DHT22;3625;51.762;14.320;2023-08-24T20:07:07;21.80;99.90
7167;DHT22;3625;51.762;14.320;2023-08-24T20:09:35;21.70;99.90
7167;DHT22;3625;51.762;14.320;2023-08-24T20:12:05;21.70;99.90
7167;DHT22;3625;51.762;14.320;2023-08-24T20:17:05;18.20;99.90
7167;DHT22;3625;51.762;14.320;2023-08-24T20:19:35;21.50;99.90
7167;DHT22;3625;51.762;14.320;2023-08-24T20:22:06;21.40;99.90
7167;DHT22;3625;51.762;14.320;2023-08-24T20:29:38;21.30;99.90
7167;DHT22;3625;51.762;14.320;2023-08-24T20:32:15;21.30;99.90
7167;DHT22;3625;51.762;14.320;2023-08-24T20:34:48;21.30;99.90
7167;DHT22;3625;51.762;14.320;2023-08-24T20:48:14;21.20;99.90
7167;DHT22;3625;51.762;14.320;2023-08-24T20:53:46;21.10;99.90
7167;DHT22;3625;51.762;14.320;2023-08-24T21:04:16;21.40;99.90
7167;DHT22;3625;51.762;14.320;2023-08-24T21:11:43;21.50;99.90
7167;DHT22;3625;51.762;14.320;2023-08-24T21:14:14;21.40;99.90
7167;DHT22;3625;51.762;14.320;2023-08-24T21:21:44;21.50;99.90
7167;DHT22;3625;51.762;14.320;2023-08-24T21:24:14;21.60;99.90
7167;DHT22;3625;51.762;14.320;2023-08-24T21:31:43;21.70;99.90
7167;DHT22;3625;51.762;14.320;2023-08-24T21:39:12;21.70;99.90
7167;DHT22;3625;51.762;14.320;2023-08-24T21:41:44;21.80;99.90
7167;DHT22;3625;51.762;14.320;2023-08-24T21:44:14;21.80;99.90
7167;DHT22;3625;51.762;14.320;2023-08-24T21:51:45;21.70;99.90
7167;DHT22;3625;51.762;14.320;2023-08-24T21:54:15;21.80;99.90
7167;DHT22;3625;51.762;14.320;2023-08-24T21:59:29;21.80;99.90
7167;DHT22;3625;51.762;14.320;2023-08-24T22:07:02;21.80;99.90
7167;DHT22;3625;51.762;14.320;2023-08-24T22:09:43;21.80;99.90
7167;DHT22;3625;51.762;14.320;2023-08-24T22:17:14;21.90;99.90
7167;DHT22;3625;51.762;14.320;2023-08-24T22:22:20;21.90;99.90
7167;DHT22;3625;51.762;14.320;2023-08-24T22:24:56;19.60;99.90
7167;DHT22;3625;51.762;14.320;2023-08-24T22:30:05;21.80;99.90
7167;DHT22;3625;51.762;14.320;2023-08-24T22:35:24;21.80;99.90
7167;DHT22;3625;51.762;14.320;2023-08-24T22:37:55;21.90;99.90
7167;DHT22;3625;51.762;14.320;2023-08-24T22:40:25;21.90;99.90
7167;DHT22;3625;51.762;14.320;2023-08-24T22:43:07;21.80;99.90
7167;DHT22;3625;51.762;14.320;2023-08-24T22:45:59;21.90;99.90
7167;DHT22;3625;51.762;14.320;2023-08-24T22:49:05;21.90;99.90
7167;DHT22;3625;51.762;14.320;2023-08-24T22:57:46;21.90;99.90
7167;DHT22;3625;51.762;14.320;2023-08-24T23:00:29;21.90;99.90
7167;DHT22;3625;51.762;14.320;2023-08-24T23:08:24;22.00;99.90
7167;DHT22;3625;51.762;14.320;2023-08-24T23:10:58;22.10;99.90
7167;DHT22;3625;51.762;14.320;2023-08-24T23:13:30;22.10;99.90
7167;DHT22;3625;51.762;14.320;2023-08-24T23:16:18;22.10;99.90
7167;DHT22;3625;51.762;14.320;2023-08-24T23:19:01;24.20;99.90
7167;DHT22;3625;51.762;14.320;2023-08-24T23:21:44;22.00;99.90
7167;DHT22;3625;51.762;14.320;2023-08-24T23:24:20;22.00;99.90
7167;DHT22;3625;51.762;14.320;2023-08-24T23:29:53;22.00;99.90
7167;DHT22;3625;51.762;14.320;2023-08-24T23:32:27;22.00;99.90
7167;DHT22;3625;51.762;14.320;2023-08-24T23:35:01;22.00;99.90
7167;DHT22;3625;51.762;14.320;2023-08-24T23:37:35;22.00;99.90
7167;DHT22;3625;51.762;14.320;2023-08-24T23:40:05;22.00;99.90
7167;DHT22;3625;51.762;14.320;2023-08-24T23:42:38;22.00;99.90
7167;DHT22;3625;51.762;14.320;2023-08-24T23:45:10;22.00;99.90
7167;DHT22;3625;51.762;14.320;2023-08-24T23:47:38;22.00;99.90
7167;DHT22;3625;51.762;14.320;2023-08-24T23:50:07;22.00;99.90
7167;DHT22;3625;51.762;14.320;2023-08-24T23:52:36;22.00;99.90
7167;DHT22;3625;51.762;14.320;2023-08-24T23:55:06;22.00;99.90
